Ossian — WDF2623 — position and weather

sailwx.info

Track history (hours):
 
Tides and Currents Weather Stations Pressure Air Temp Water Temp Dewpoint Dewpoint Depression Visibility Wind Speed Wind Dir Waves Ship Positions

Ossian

Owner: Hartzell, Scott R, Florence, OR. More information available from US FCC via Universal Licensing System and Coast Guard Vessel Documentation Center.

Last reported at 2015-Apr-04 05:33 UTC. Time now 2015-Apr-21 01:29 UTC.
Position N 38°35' W 123°32'.
Warning: this ship's position is 16 days out of date.

Length 26 m.

Type: Fishing. MMSI: 366773410.

Date/timePositionNaut miles runAvg speedWind from/ knotsBaromVisibWave heightAir tempDewpointWater temp
2015-Apr-04 05:33N 38°35' W 123°32'7 7.4
2015-Apr-04 04:33N 38°29' W 123°27'6 6.4
2015-Apr-04 03:33N 38°24' W 123°23'6 5.6
2015-Apr-04 02:34N 38°19' W 123°19'6 5.5
2015-Apr-04 01:34N 38°14' W 123°16'5 4.9
2015-Apr-04 00:33N 38°10' W 123°12'5 5.3
2015-Apr-03 23:33N 38°05' W 123°09'5 5.2
2015-Apr-03 22:33N 38°01' W 123°06'6 5.9
2015-Apr-03 21:33N 37°58' W 122°59'3 3.5
2015-Apr-03 20:33N 37°60' W 122°55'0 0.0
2015-Apr-03 19:33N 37°60' W 122°55'4 3.9
2015-Apr-03 18:33N 37°57' W 122°52'8 7.6
2015-Apr-03 17:33N 37°50' W 122°47'9 7.6
2015-Apr-03 16:22N 37°42' W 122°42'15 7.8
2015-Apr-03 14:28N 37°27' W 122°39'162 7.1
2015-Apr-02 15:33N 35°09' W 120°54'7 6.8
2015-Apr-02 14:34N 35°03' W 120°50'140 5.2
2015-Apr-01 11:21N 33°28' W 118°45'18 8.2
2015-Apr-01 09:07N 33°10' W 118°45'8 7.9
2015-Apr-01 08:09N 33°02' W 118°45'16 4.4
2015-Apr-01 04:27N 32°46' W 118°43'5 5.7
2015-Apr-01 03:33N 32°43' W 118°38'4 1.6
2015-Apr-01 01:10N 32°39' W 118°40'6 2.1
2015-Mar-31 22:33N 32°34' W 118°38'0 0.4
2015-Mar-31 21:31N 32°34' W 118°39'2 2.2
2015-Mar-31 20:29N 32°36' W 118°39'2 2.0
2015-Mar-31 19:21N 32°34' W 118°38'1 1.5
2015-Mar-31 18:31N 32°34' W 118°37'0 0.1
2015-Mar-31 17:33N 32°35' W 118°37'1 0.5
2015-Mar-31 16:34N 32°35' W 118°37'1 0.9
2015-Mar-31 15:32N 32°36' W 118°38'4 4.2
2015-Mar-31 14:33N 32°40' W 118°38'1 0.5
2015-Mar-31 13:33N 32°39' W 118°39'0 0.3
2015-Mar-31 12:33N 32°39' W 118°39'5 5.2
2015-Mar-31 11:33N 32°44' W 118°39'10 8.0
2015-Mar-31 10:16N 32°54' W 118°41'4 1.5
2015-Mar-31 07:33N 32°56' W 118°46'0 0.3
2015-Mar-31 06:33N 32°56' W 118°45'1 1.0
2015-Mar-31 05:30N 32°56' W 118°44'2 1.5
2015-Mar-31 04:29N 32°56' W 118°43'7 6.8
2015-Mar-31 03:25N 33°02' W 118°49'5 5.8
2015-Mar-31 02:33N 33°07' W 118°49'2 1.9
2015-Mar-31 01:33N 33°09' W 118°49'1 0.5
2015-Mar-31 00:33N 33°08' W 118°49'3 3.2
2015-Mar-30 23:33N 33°06' W 118°47'6 5.7
2015-Mar-30 22:33N 33°00' W 118°45'6 5.9
2015-Mar-30 21:32N 32°54' W 118°43'6 5.9
2015-Mar-30 20:33N 32°49' W 118°44'5 5.0
2015-Mar-30 19:33N 32°45' W 118°40'5 4.4
2015-Mar-30 18:25N 32°40' W 118°40'5 5.3
2015-Mar-30 17:33N 32°36' W 118°36'0 0.4
2015-Mar-30 16:28N 32°36' W 118°36'0 0.4
2015-Mar-30 15:31N 32°36' W 118°36'0 0.3
2015-Mar-30 14:33N 32°35' W 118°37'0 0.3
2015-Mar-30 13:32N 32°35' W 118°37'0 0.2
2015-Mar-30 12:34N 32°35' W 118°37'0 0.3
2015-Mar-30 11:33N 32°35' W 118°37'0 0.3
2015-Mar-30 10:32N 32°35' W 118°37'0 0.2
2015-Mar-30 09:32N 32°34' W 118°37'2 2.2
2015-Mar-30 08:31N 32°36' W 118°39'5 5.7
2015-Mar-30 07:34N 32°41' W 118°39'3 2.9
2015-Mar-30 06:33N 32°44' W 118°40'3 3.4
2015-Mar-30 05:33N 32°45' W 118°43'9 6.8
2015-Mar-30 04:16N 32°54' W 118°44'1 0.4
2015-Mar-30 03:05N 32°54' W 118°43'2 3.8
2015-Mar-30 02:33N 32°56' W 118°44'6 6.1
2015-Mar-30 01:29N 33°02' W 118°48'33 8.0
2015-Mar-29 21:24N 33°34' W 118°49'16 8.7
2015-Mar-29 19:33N 33°50' W 118°50'21 8.7
2015-Mar-29 17:11N 33°59' W 119°12'109 7.5
2015-Mar-29 02:33N 35°07' W 120°56'  
Track history (hours):
 
Tides and Currents Weather Stations Pressure Air Temp Water Temp Dewpoint Dewpoint Depression Visibility Wind Speed Wind Dir Waves Ship Positions

Ossian

Owner: Hartzell, Scott R, Florence, OR. More information available from US FCC via Universal Licensing System and Coast Guard Vessel Documentation Center.

Last reported at 2015-Apr-04 05:33 UTC. Time now 2015-Apr-21 01:29 UTC.
Position N 38°35' W 123°32'.
Warning: this ship's position is 16 days out of date.

Length 26 m.

Type: Fishing. MMSI: 366773410.

Date/timePositionNaut miles runAvg speedWind from/ knotsBaromVisibWave heightAir tempDewpointWater temp
2015-Apr-04 05:33N 38°35' W 123°32'7 7.4
2015-Apr-04 04:33N 38°29' W 123°27'6 6.4
2015-Apr-04 03:33N 38°24' W 123°23'6 5.6
2015-Apr-04 02:34N 38°19' W 123°19'6 5.5
2015-Apr-04 01:34N 38°14' W 123°16'5 4.9
2015-Apr-04 00:33N 38°10' W 123°12'5 5.3
2015-Apr-03 23:33N 38°05' W 123°09'5 5.2
2015-Apr-03 22:33N 38°01' W 123°06'6 5.9
2015-Apr-03 21:33N 37°58' W 122°59'3 3.5
2015-Apr-03 20:33N 37°60' W 122°55'0 0.0
2015-Apr-03 19:33N 37°60' W 122°55'4 3.9
2015-Apr-03 18:33N 37°57' W 122°52'8 7.6
2015-Apr-03 17:33N 37°50' W 122°47'9 7.6
2015-Apr-03 16:22N 37°42' W 122°42'15 7.8
2015-Apr-03 14:28N 37°27' W 122°39'162 7.1
2015-Apr-02 15:33N 35°09' W 120°54'7 6.8
2015-Apr-02 14:34N 35°03' W 120°50'140 5.2
2015-Apr-01 11:21N 33°28' W 118°45'18 8.2
2015-Apr-01 09:07N 33°10' W 118°45'8 7.9
2015-Apr-01 08:09N 33°02' W 118°45'16 4.4
2015-Apr-01 04:27N 32°46' W 118°43'5 5.7
2015-Apr-01 03:33N 32°43' W 118°38'4 1.6
2015-Apr-01 01:10N 32°39' W 118°40'6 2.1
2015-Mar-31 22:33N 32°34' W 118°38'0 0.4
2015-Mar-31 21:31N 32°34' W 118°39'2 2.2
2015-Mar-31 20:29N 32°36' W 118°39'2 2.0
2015-Mar-31 19:21N 32°34' W 118°38'1 1.5
2015-Mar-31 18:31N 32°34' W 118°37'0 0.1
2015-Mar-31 17:33N 32°35' W 118°37'1 0.5
2015-Mar-31 16:34N 32°35' W 118°37'1 0.9
2015-Mar-31 15:32N 32°36' W 118°38'4 4.2
2015-Mar-31 14:33N 32°40' W 118°38'1 0.5
2015-Mar-31 13:33N 32°39' W 118°39'0 0.3
2015-Mar-31 12:33N 32°39' W 118°39'5 5.2
2015-Mar-31 11:33N 32°44' W 118°39'10 8.0
2015-Mar-31 10:16N 32°54' W 118°41'4 1.5
2015-Mar-31 07:33N 32°56' W 118°46'0 0.3
2015-Mar-31 06:33N 32°56' W 118°45'1 1.0
2015-Mar-31 05:30N 32°56' W 118°44'2 1.5
2015-Mar-31 04:29N 32°56' W 118°43'7 6.8
2015-Mar-31 03:25N 33°02' W 118°49'5 5.8
2015-Mar-31 02:33N 33°07' W 118°49'2 1.9
2015-Mar-31 01:33N 33°09' W 118°49'1 0.5
2015-Mar-31 00:33N 33°08' W 118°49'3 3.2
2015-Mar-30 23:33N 33°06' W 118°47'6 5.7
2015-Mar-30 22:33N 33°00' W 118°45'6 5.9
2015-Mar-30 21:32N 32°54' W 118°43'6 5.9
2015-Mar-30 20:33N 32°49' W 118°44'5 5.0
2015-Mar-30 19:33N 32°45' W 118°40'5 4.4
2015-Mar-30 18:25N 32°40' W 118°40'5 5.3
2015-Mar-30 17:33N 32°36' W 118°36'0 0.4
2015-Mar-30 16:28N 32°36' W 118°36'0 0.4
2015-Mar-30 15:31N 32°36' W 118°36'0 0.3
2015-Mar-30 14:33N 32°35' W 118°37'0 0.3
2015-Mar-30 13:32N 32°35' W 118°37'0 0.2
2015-Mar-30 12:34N 32°35' W 118°37'0 0.3
2015-Mar-30 11:33N 32°35' W 118°37'0 0.3
2015-Mar-30 10:32N 32°35' W 118°37'0 0.2
2015-Mar-30 09:32N 32°34' W 118°37'2 2.2
2015-Mar-30 08:31N 32°36' W 118°39'5 5.7
2015-Mar-30 07:34N 32°41' W 118°39'3 2.9
2015-Mar-30 06:33N 32°44' W 118°40'3 3.4
2015-Mar-30 05:33N 32°45' W 118°43'9 6.8
2015-Mar-30 04:16N 32°54' W 118°44'1 0.4
2015-Mar-30 03:05N 32°54' W 118°43'2 3.8
2015-Mar-30 02:33N 32°56' W 118°44'6 6.1
2015-Mar-30 01:29N 33°02' W 118°48'33 8.0
2015-Mar-29 21:24N 33°34' W 118°49'16 8.7
2015-Mar-29 19:33N 33°50' W 118°50'21 8.7
2015-Mar-29 17:11N 33°59' W 119°12'109 7.5
2015-Mar-29 02:33N 35°07' W 120°56'  

Dump ship's entire track history